LavenderCAM.net
Leatherhead Weather
 
Leatherhead Weather
 
 





Aviation weather for

London Heathrow (EGLL) and London Gatwick (EGKK)



London Heathrow (EGLL) METAR / Surface Actual
London / Heathrow Airport, United Kingdom (EGLL) 51-29N 000-27W 0M
Jul 13, 2020 - 03:20 PM EDT / 2020.07.13 1920 UTC
Wind: from the WNW (300 degrees) at 7 MPH (6 KT):0
Visibility: greater than 7 mile(s):0
Sky conditions: overcast
Temperature: 68 F (20 C)
Dew Point: 53 F (12 C)
Relative Humidity: 59%
Pressure (altimeter): 30.09 in. Hg (1019 hPa)
ob: EGLL 131920Z AUTO 30006KT 9999 OVC046 20/12 Q1019
cycle: 19
London Heathrow (EGLL) TAF / Forecast
2020/07/13 18:58
TAF 
      AMD EGLL 131849Z 1318/1424 29009KT 9999 SCT045 PROB40 
      TEMPO 1318/1322 8000 -RA 
      TEMPO 1322/1405 5000 RA BKN008


London Gatwick (EGKK) METAR / Surface Actual
London / Gatwick Airport, United Kingdom (EGKK) 51-09N 000-11W 0M
Jul 13, 2020 - 03:20 PM EDT / 2020.07.13 1920 UTC
Wind: from the SW (230 degrees) at 10 MPH (9 KT):0
Visibility: greater than 7 mile(s):0
Temperature: 68 F (20 C)
Dew Point: 48 F (9 C)
Relative Humidity: 49%
Pressure (altimeter): 30.12 in. Hg (1020 hPa)
ob: EGKK 131920Z 23009KT CAVOK 20/09 Q1020
cycle: 19
London Gatwick (EGKK) TAF / Forecast
2020/07/13 18:09
TAF TAF EGKK 131658Z 1318/1424 25010KT 9999 SCT048 PROB30 
      TEMPO 1320/1322 8000 -RA 
      TEMPO 1322/1406 6000 RA BKN007 PROB30 
      TEMPO 1400/1405 4000 RADZ BKN004 
      BECMG 1401/1404 33006KT PROB30 
      TEMPO 1408/1411 8000 -SHRA BKN014